createdAt,value
2024-03-26T00:02:10.508Z,295.67
2024-03-26T00:03:18.869Z,297.00
2024-03-26T00:03:32.057Z,293.83
2024-03-26T00:04:52.053Z,291.50
2024-03-26T00:06:14.480Z,290.17
2024-03-26T00:07:44.399Z,287.33
2024-03-26T00:09:04.078Z,284.00
2024-03-26T00:10:47.310Z,282.67
2024-03-26T00:12:13.776Z,279.17
2024-03-26T00:13:37.426Z,276.67
2024-03-26T00:15:12.291Z,274.83
2024-03-26T00:16:38.380Z,276.33
2024-03-26T00:17:58.232Z,277.50
2024-03-26T00:19:24.932Z,282.50
2024-03-26T00:21:45.142Z,297.17
2024-03-26T00:23:05.134Z,297.33
2024-03-26T00:24:25.040Z,296.00
2024-03-26T00:25:49.106Z,294.50
2024-03-26T00:27:12.107Z,287.83
2024-03-26T00:28:44.042Z,287.83
2024-03-26T00:32:27.092Z,306.17
2024-03-26T00:33:47.415Z,303.67
2024-03-26T00:35:09.775Z,301.67
2024-03-26T00:36:34.084Z,301.00
2024-03-26T00:38:20.280Z,300.50
2024-03-26T00:39:41.286Z,295.33
2024-03-26T00:41:28.683Z,277.17
2024-03-26T00:42:58.496Z,263.33
2024-03-26T00:44:19.603Z,261.67
2024-03-26T00:46:02.803Z,263.00
2024-03-26T00:47:35.423Z,266.17
2024-03-26T00:49:17.068Z,267.83
2024-03-26T00:50:37.731Z,268.00
2024-03-26T00:52:11.686Z,268.67
2024-03-26T00:55:39.450Z,278.33
2024-03-26T00:56:11.313Z,269.83
2024-03-26T00:56:59.260Z,301.67
2024-03-26T00:58:19.316Z,298.67
2024-03-26T00:59:45.724Z,294.17
2024-03-26T01:01:12.680Z,293.17
2024-03-26T01:02:37.855Z,278.67
2024-03-26T01:04:16.033Z,255.00
2024-03-26T01:05:51.963Z,255.83
2024-03-26T01:07:11.527Z,262.67
2024-03-26T01:08:37.981Z,282.17
2024-03-26T01:10:04.201Z,338.83
2024-03-26T01:11:52.564Z,353.50
2024-03-26T01:13:16.242Z,404.33
2024-03-26T01:14:36.479Z,380.17
2024-03-26T01:16:52.110Z,354.33
2024-03-26T01:18:19.782Z,323.83
2024-03-26T01:19:46.623Z,302.67
2024-03-26T01:21:13.252Z,284.00
2024-03-26T01:22:56.920Z,270.83
2024-03-26T01:24:43.016Z,263.50
2024-03-26T01:26:13.310Z,262.33
2024-03-26T01:27:53.295Z,263.00
2024-03-26T01:29:40.396Z,259.67
2024-03-26T01:31:04.017Z,256.50
2024-03-26T01:32:24.352Z,259.50
2024-03-26T01:35:41.624Z,256.67
2024-03-26T01:37:13.515Z,252.17
2024-03-26T01:38:42.725Z,250.17
2024-03-26T01:41:12.283Z,249.50
2024-03-26T01:43:22.511Z,243.33
2024-03-26T01:44:37.557Z,236.50
2024-03-26T01:46:15.460Z,227.17
2024-03-26T01:47:48.214Z,217.67
2024-03-26T01:51:21.423Z,203.50
2024-03-26T01:52:46.777Z,206.33
2024-03-26T01:54:11.091Z,213.50
2024-03-26T01:55:34.930Z,216.00
2024-03-26T01:57:00.318Z,210.83
2024-03-26T01:58:27.264Z,199.83
2024-03-26T02:00:21.151Z,196.83
2024-03-26T02:01:41.347Z,191.67
2024-03-26T02:03:02.209Z,194.33
2024-03-26T02:04:22.542Z,184.83
2024-03-26T02:06:21.535Z,179.00
2024-03-26T02:07:45.702Z,182.00
2024-03-26T02:09:08.072Z,185.67
2024-03-26T02:10:27.948Z,183.50
2024-03-26T02:11:59.595Z,181.33
2024-03-26T02:13:35.626Z,182.33
2024-03-26T02:15:29.202Z,228.83
2024-03-26T02:16:58.298Z,254.50
2024-03-26T02:18:19.215Z,248.00
2024-03-26T02:19:39.084Z,241.67
2024-03-26T02:21:30.451Z,251.17
2024-03-26T02:22:59.426Z,260.83
2024-03-26T02:24:22.393Z,258.33
2024-03-26T02:25:46.473Z,250.83
2024-03-26T02:27:16.593Z,247.50
2024-03-26T02:28:46.778Z,246.83
2024-03-26T02:30:16.060Z,227.00
2024-03-26T02:31:43.856Z,212.67
2024-03-26T02:33:06.377Z,208.17
2024-03-26T02:34:44.890Z,205.00
2024-03-26T02:36:08.594Z,200.33
2024-03-26T02:37:28.154Z,198.67
2024-03-26T02:39:17.780Z,196.50
2024-03-26T02:40:37.600Z,189.83
2024-03-26T02:42:12.148Z,187.00
2024-03-26T02:43:38.411Z,185.17
2024-03-26T02:45:13.907Z,190.00
2024-03-26T02:49:02.948Z,189.00
2024-03-26T02:50:50.547Z,188.00
2024-03-26T02:52:12.488Z,187.17
2024-03-26T02:53:48.235Z,190.00
2024-03-26T02:55:50.877Z,195.67
2024-03-26T02:57:12.574Z,193.50
2024-03-26T02:58:38.915Z,192.00
2024-03-26T03:00:14.500Z,191.00
2024-03-26T03:01:57.095Z,186.50
2024-03-26T03:05:25.704Z,184.50
2024-03-26T03:05:25.780Z,184.00
2024-03-26T03:06:57.849Z,183.33
2024-03-26T03:09:07.593Z,183.00
2024-03-26T03:10:27.930Z,181.50
2024-03-26T03:11:57.316Z,181.00
2024-03-26T03:13:17.237Z,181.00
2024-03-26T03:14:40.262Z,181.00
2024-03-26T03:16:04.286Z,181.00
2024-03-26T03:17:26.355Z,181.33
2024-03-26T03:18:58.189Z,182.67
2024-03-26T03:20:28.340Z,182.67
2024-03-26T03:21:48.637Z,181.17
2024-03-26T03:23:19.500Z,180.00
2024-03-26T03:24:42.971Z,179.33
2024-03-26T03:26:09.540Z,180.00
2024-03-26T03:27:40.266Z,179.83
2024-03-26T03:29:34.871Z,178.00
2024-03-26T03:30:58.268Z,178.67
2024-03-26T03:32:18.955Z,182.17
2024-03-26T03:33:48.805Z,183.00
2024-03-26T03:35:12.641Z,183.00
2024-03-26T03:36:32.191Z,183.83
2024-03-26T03:41:01.019Z,187.00
2024-03-26T03:42:28.336Z,187.00
2024-03-26T03:44:23.320Z,189.00
2024-03-26T03:45:47.821Z,195.50
2024-03-26T03:47:14.435Z,197.00
2024-03-26T03:48:38.027Z,196.00
2024-03-26T03:50:10.184Z,195.17
2024-03-26T03:51:43.052Z,195.00
2024-03-26T03:53:02.853Z,195.00
2024-03-26T03:54:25.996Z,195.00
2024-03-26T03:55:59.243Z,195.00
2024-03-26T03:57:22.212Z,195.33
2024-03-26T03:58:43.492Z,197.00
2024-03-26T04:00:20.948Z,196.00
2024-03-26T04:01:53.708Z,193.83
2024-03-26T04:03:13.320Z,194.83
2024-03-26T04:04:55.728Z,214.67
2024-03-26T04:06:25.483Z,219.00
2024-03-26T04:11:18.749Z,213.17
2024-03-26T04:13:12.018Z,211.17
2024-03-26T04:14:41.338Z,210.17
2024-03-26T04:16:15.164Z,208.67
2024-03-26T04:17:38.668Z,205.67
2024-03-26T04:19:02.015Z,201.50
2024-03-26T04:20:33.706Z,200.00
2024-03-26T04:21:53.263Z,200.00
2024-03-26T04:23:16.637Z,200.00
2024-03-26T04:24:45.607Z,198.17
2024-03-26T04:26:53.198Z,193.50
2024-03-26T04:28:39.193Z,191.83
2024-03-26T04:30:01.848Z,190.00
2024-03-26T04:31:25.701Z,190.50
2024-03-26T04:32:57.099Z,209.50
2024-03-26T04:34:18.227Z,212.67
2024-03-26T04:37:46.534Z,194.17
2024-03-26T04:39:09.322Z,195.33
2024-03-26T04:40:31.907Z,203.17
2024-03-26T04:42:15.428Z,204.67
2024-03-26T04:43:36.602Z,203.00
2024-03-26T04:44:56.004Z,203.00
2024-03-26T04:46:15.846Z,203.00
2024-03-26T04:48:09.919Z,201.83
2024-03-26T04:49:29.505Z,194.50
2024-03-26T04:50:49.692Z,190.00
2024-03-26T04:52:46.893Z,188.17
2024-03-26T04:54:10.866Z,188.00
2024-03-26T04:55:32.800Z,188.00
2024-03-26T04:57:15.782Z,188.33
2024-03-26T04:59:12.883Z,190.67
2024-03-26T05:01:22.418Z,198.17
2024-03-26T05:03:20.885Z,199.17
2024-03-26T05:04:47.198Z,198.50
2024-03-26T05:06:08.517Z,194.50
2024-03-26T05:07:30.118Z,187.67
2024-03-26T05:09:14.164Z,184.67
2024-03-26T05:10:34.140Z,180.00
2024-03-26T05:11:55.240Z,179.00
2024-03-26T05:13:30.964Z,179.00
2024-03-26T05:15:18.304Z,178.33
2024-03-26T05:16:59.649Z,178.00
2024-03-26T05:18:31.910Z,178.00
2024-03-26T05:21:31.751Z,179.67
2024-03-26T05:21:51.227Z,191.00
2024-03-26T05:23:10.951Z,192.00
2024-03-26T05:24:35.393Z,192.83
2024-03-26T05:25:58.804Z,192.33
2024-03-26T05:27:24.214Z,191.83
2024-03-26T05:28:49.059Z,187.00
2024-03-26T05:30:33.662Z,186.00
2024-03-26T05:31:56.896Z,187.00
2024-03-26T05:33:28.353Z,188.00
2024-03-26T05:34:52.376Z,186.33
2024-03-26T05:36:20.581Z,181.83
2024-03-26T05:37:48.138Z,178.17
2024-03-26T05:39:11.729Z,178.50
2024-03-26T05:40:31.753Z,179.00
2024-03-26T05:41:51.983Z,177.17
2024-03-26T05:43:11.353Z,173.17
2024-03-26T05:44:30.540Z,170.50
2024-03-26T05:45:53.654Z,170.50
2024-03-26T05:47:15.044Z,171.67
2024-03-26T05:48:35.216Z,172.83
2024-03-26T05:49:57.952Z,173.67
2024-03-26T05:51:18.732Z,179.83
2024-03-26T05:52:42.908Z,183.00
2024-03-26T05:54:03.864Z,182.17
2024-03-26T05:55:24.592Z,179.83
2024-03-26T05:56:51.648Z,179.33
2024-03-26T05:58:12.449Z,178.00
2024-03-26T05:59:32.894Z,178.67
2024-03-26T06:00:54.918Z,177.00
2024-03-26T06:02:15.652Z,178.50
2024-03-26T06:03:40.545Z,177.67
2024-03-26T06:05:01.552Z,174.17
2024-03-26T06:06:23.271Z,164.50
2024-03-26T06:07:47.113Z,164.83
2024-03-26T06:09:08.100Z,180.33
2024-03-26T06:10:28.997Z,203.83
2024-03-26T06:11:53.085Z,214.50
2024-03-26T06:13:22.740Z,219.17
2024-03-26T06:14:43.678Z,245.33
2024-03-26T06:16:09.054Z,243.00
2024-03-26T06:17:32.626Z,224.67
2024-03-26T06:18:58.434Z,219.33
2024-03-26T06:20:22.504Z,205.67
2024-03-26T06:21:43.332Z,195.67
2024-03-26T06:23:05.772Z,184.33
2024-03-26T06:24:26.441Z,170.00
2024-03-26T06:25:46.505Z,173.33
2024-03-26T06:27:10.504Z,161.83
2024-03-26T06:28:32.536Z,141.50
2024-03-26T06:29:56.397Z,130.17
2024-03-26T06:31:17.255Z,131.67
2024-03-26T06:32:37.141Z,142.00
2024-03-26T06:33:57.427Z,150.67
2024-03-26T06:35:17.785Z,154.33
2024-03-26T06:36:38.880Z,162.00
2024-03-26T06:38:00.141Z,180.67
2024-03-26T06:39:21.358Z,170.00
2024-03-26T06:40:42.108Z,164.17
2024-03-26T06:42:02.886Z,138.83
2024-03-26T06:43:24.596Z,120.17
2024-03-26T06:44:45.047Z,134.33
2024-03-26T06:46:07.623Z,146.83
2024-03-26T06:47:28.034Z,168.33
2024-03-26T06:48:53.740Z,174.67
2024-03-26T06:50:15.523Z,196.67
2024-03-26T06:51:36.138Z,214.00
2024-03-26T06:53:06.048Z,191.33
2024-03-26T06:54:26.301Z,188.00
2024-03-26T06:55:46.121Z,183.67
2024-03-26T06:57:06.546Z,156.67
2024-03-26T06:58:27.077Z,132.67
2024-03-26T06:59:47.360Z,127.67
2024-03-26T07:01:07.607Z,122.67
2024-03-26T07:02:28.096Z,132.33
2024-03-26T07:03:53.177Z,121.33
2024-03-26T07:05:16.908Z,126.83
2024-03-26T07:06:46.090Z,115.17
2024-03-26T07:08:09.531Z,106.67
2024-03-26T07:09:39.259Z,98.83
2024-03-26T07:11:34.631Z,96.17
2024-03-26T07:12:58.990Z,101.17
2024-03-26T07:14:26.857Z,106.83
2024-03-26T07:15:52.141Z,109.67
2024-03-26T07:17:12.957Z,112.00
2024-03-26T07:18:34.826Z,115.33
2024-03-26T07:19:55.123Z,113.00
2024-03-26T07:21:16.599Z,99.33
2024-03-26T07:22:38.751Z,98.67
2024-03-26T07:24:01.949Z,101.83
2024-03-26T07:25:24.429Z,94.83
2024-03-26T07:26:48.391Z,93.50
2024-03-26T07:28:08.523Z,91.67
2024-03-26T07:29:29.727Z,92.00
2024-03-26T07:30:50.259Z,93.00
2024-03-26T07:32:15.016Z,86.33
2024-03-26T07:33:36.714Z,80.00
2024-03-26T07:34:56.592Z,80.17
2024-03-26T07:36:17.672Z,83.50
2024-03-26T07:37:37.558Z,89.00
2024-03-26T07:39:01.352Z,121.50
2024-03-26T07:40:43.838Z,116.33
2024-03-26T07:42:04.570Z,103.50
2024-03-26T07:43:36.487Z,96.17
2024-03-26T07:45:21.006Z,91.50
2024-03-26T07:49:17.473Z,83.17
2024-03-26T07:50:50.344Z,84.00
2024-03-26T07:52:20.441Z,85.33
2024-03-26T07:53:41.443Z,84.83
2024-03-26T07:55:12.897Z,78.67
2024-03-26T07:56:36.121Z,76.33
2024-03-26T07:57:57.490Z,78.00
2024-03-26T07:59:17.605Z,78.00
2024-03-26T08:00:37.909Z,77.00
2024-03-26T08:01:58.294Z,74.00
2024-03-26T08:03:18.579Z,73.00
2024-03-26T08:04:41.662Z,73.50
2024-03-26T08:06:03.916Z,73.67
2024-03-26T08:07:24.220Z,74.00
2024-03-26T08:08:50.531Z,74.00
2024-03-26T08:10:12.251Z,75.00
2024-03-26T08:11:32.882Z,92.83
2024-03-26T08:12:53.496Z,93.67
2024-03-26T08:14:15.196Z,90.17
2024-03-26T08:15:35.973Z,88.67
2024-03-26T08:16:57.078Z,86.50
2024-03-26T08:18:19.031Z,85.67
2024-03-26T08:19:41.617Z,73.67
2024-03-26T08:21:02.774Z,63.33
2024-03-26T08:22:23.345Z,58.50
2024-03-26T08:23:44.321Z,51.17
2024-03-26T08:25:05.747Z,53.33
2024-03-26T08:26:29.246Z,55.33
2024-03-26T08:27:52.295Z,56.83
2024-03-26T08:29:12.505Z,53.67
2024-03-26T08:30:35.713Z,52.00
2024-03-26T08:31:59.822Z,52.00
2024-03-26T08:33:24.900Z,52.50
2024-03-26T08:34:45.441Z,53.00
2024-03-26T08:36:12.662Z,53.83
2024-03-26T08:37:35.492Z,55.00
2024-03-26T08:39:01.902Z,60.50
2024-03-26T08:42:22.300Z,63.00
2024-03-26T08:44:04.198Z,62.17
2024-03-26T08:45:25.280Z,62.00
2024-03-26T08:46:47.640Z,62.67
2024-03-26T08:48:15.061Z,64.00
2024-03-26T08:49:39.245Z,62.67
2024-03-26T08:51:00.039Z,61.83
2024-03-26T08:52:20.240Z,59.50
2024-03-26T08:53:40.549Z,54.50
2024-03-26T08:55:21.861Z,52.67
2024-03-26T08:56:46.282Z,54.67
2024-03-26T08:58:07.552Z,54.00
2024-03-26T08:59:28.446Z,55.00
2024-03-26T09:00:52.454Z,55.00
2024-03-26T09:02:16.928Z,55.33
2024-03-26T09:03:38.023Z,57.83
2024-03-26T09:05:08.607Z,58.50
2024-03-26T09:06:29.704Z,51.50
2024-03-26T09:07:50.738Z,49.33
2024-03-26T09:09:11.426Z,50.00
2024-03-26T09:10:32.124Z,50.50
2024-03-26T09:11:53.423Z,48.50
2024-03-26T09:13:17.316Z,45.33
2024-03-26T09:14:43.404Z,51.17
2024-03-26T09:16:04.034Z,53.67
2024-03-26T09:17:24.723Z,50.33
2024-03-26T09:18:49.663Z,43.00
2024-03-26T09:20:10.766Z,38.67
2024-03-26T09:21:33.407Z,37.50
2024-03-26T09:22:54.232Z,39.33
2024-03-26T09:25:00.730Z,40.83
2024-03-26T09:25:56.505Z,40.67
2024-03-26T09:27:17.555Z,39.00
2024-03-26T09:28:41.948Z,39.00
2024-03-26T09:30:07.064Z,40.67
2024-03-26T09:31:33.877Z,45.83
2024-03-26T09:32:54.733Z,42.33
2024-03-26T09:34:21.428Z,34.83
2024-03-26T09:35:42.220Z,31.83
2024-03-26T09:37:03.418Z,32.33
2024-03-26T09:38:47.443Z,33.17
2024-03-26T09:40:25.966Z,34.00
2024-03-26T09:41:46.665Z,34.67
2024-03-26T09:43:10.105Z,34.33
2024-03-26T09:45:05.557Z,34.00
2024-03-26T09:46:26.394Z,35.00
2024-03-26T09:48:23.935Z,34.17
2024-03-26T09:50:13.476Z,33.83
2024-03-26T09:51:53.014Z,31.17
2024-03-26T09:53:34.843Z,28.17
2024-03-26T09:55:21.338Z,26.33
2024-03-26T09:56:42.593Z,25.83
2024-03-26T09:58:12.906Z,24.00
2024-03-26T09:59:34.453Z,23.00
2024-03-26T10:00:56.177Z,22.67
2024-03-26T10:02:22.211Z,22.67
2024-03-26T10:03:49.514Z,23.00
2024-03-26T10:05:16.608Z,24.00
2024-03-26T10:06:38.328Z,25.00
2024-03-26T10:07:59.780Z,24.33
2024-03-26T10:09:43.984Z,23.83
2024-03-26T10:11:06.640Z,22.33
2024-03-26T10:12:29.745Z,22.00
2024-03-26T10:13:53.836Z,22.00
2024-03-26T10:15:55.300Z,24.17
2024-03-26T10:17:30.022Z,25.00
2024-03-26T10:18:54.043Z,24.83
2024-03-26T10:20:19.149Z,24.00
2024-03-26T10:21:49.476Z,24.00
2024-03-26T10:23:12.961Z,24.67
2024-03-26T10:24:38.764Z,27.00
2024-03-26T10:26:03.717Z,25.83
2024-03-26T10:27:24.769Z,23.17
2024-03-26T10:28:51.029Z,22.00
2024-03-26T10:30:11.994Z,22.00
2024-03-26T10:31:35.688Z,22.00
2024-03-26T10:32:57.865Z,22.33
2024-03-26T10:34:25.252Z,24.50
2024-03-26T10:35:54.829Z,26.00
2024-03-26T10:37:24.743Z,26.17
2024-03-26T10:38:53.939Z,30.50
2024-03-26T10:40:27.055Z,32.17
2024-03-26T10:42:03.703Z,32.17
2024-03-26T10:43:58.671Z,32.00
2024-03-26T10:45:34.149Z,30.17
2024-03-26T10:47:10.924Z,27.00
2024-03-26T10:48:41.847Z,24.17
2024-03-26T10:50:11.205Z,22.17
2024-03-26T10:52:04.711Z,21.00
2024-03-26T10:53:26.361Z,22.00
2024-03-26T10:54:49.807Z,22.50
2024-03-26T10:56:52.898Z,26.33
2024-03-26T10:57:53.587Z,27.00
2024-03-26T10:59:41.513Z,27.17
2024-03-26T11:01:04.493Z,35.83
2024-03-26T11:02:30.625Z,35.83
2024-03-26T11:03:53.172Z,35.00
2024-03-26T11:05:17.242Z,41.17
2024-03-26T11:06:39.493Z,41.17
2024-03-26T11:08:06.205Z,38.50
2024-03-26T11:09:30.319Z,35.17
2024-03-26T11:11:18.652Z,37.50
2024-03-26T11:12:41.178Z,44.50
2024-03-26T11:14:04.358Z,42.50
2024-03-26T11:15:32.430Z,41.00
2024-03-26T11:16:53.006Z,37.17
2024-03-26T11:20:18.348Z,36.00
2024-03-26T11:21:46.357Z,38.50
2024-03-26T11:23:10.229Z,39.83
2024-03-26T11:24:35.535Z,40.00
2024-03-26T11:25:56.178Z,41.00
2024-03-26T11:27:17.564Z,41.17
2024-03-26T11:28:39.273Z,43.00
2024-03-26T11:30:00.481Z,43.00
2024-03-26T11:31:21.754Z,45.17
2024-03-26T11:32:43.371Z,60.00
2024-03-26T11:34:05.348Z,68.00
2024-03-26T11:35:27.732Z,60.83
2024-03-26T11:36:48.029Z,65.83
2024-03-26T11:38:08.617Z,75.00
2024-03-26T11:39:29.509Z,71.00
2024-03-26T11:40:51.459Z,63.33
2024-03-26T11:42:17.857Z,49.83
2024-03-26T11:43:38.854Z,49.17
2024-03-26T11:45:12.347Z,50.00
2024-03-26T11:46:35.042Z,48.33
2024-03-26T11:47:56.576Z,56.50
2024-03-26T11:49:17.552Z,68.33
2024-03-26T11:50:38.273Z,79.50
2024-03-26T11:51:59.232Z,99.33
2024-03-26T11:53:19.758Z,113.00
2024-03-26T11:54:40.856Z,144.33
2024-03-26T11:56:01.476Z,128.33
2024-03-26T11:57:22.118Z,107.33
2024-03-26T11:58:42.452Z,88.00
2024-03-26T12:00:05.206Z,72.00
2024-03-26T12:01:25.667Z,72.67
2024-03-26T12:02:46.991Z,76.50
2024-03-26T12:04:08.866Z,80.00
2024-03-26T12:05:29.800Z,81.00
2024-03-26T12:06:49.650Z,81.83
2024-03-26T12:08:11.088Z,91.33
2024-03-26T12:09:32.863Z,95.50
2024-03-26T12:10:54.421Z,96.33
2024-03-26T12:12:16.581Z,100.83
2024-03-26T12:13:48.667Z,100.00
2024-03-26T12:15:13.527Z,98.83
2024-03-26T12:16:34.337Z,94.17
2024-03-26T12:17:55.454Z,90.50
2024-03-26T12:19:17.368Z,82.17
2024-03-26T12:20:38.351Z,88.17
2024-03-26T12:21:58.753Z,92.33
2024-03-26T12:23:24.979Z,89.33
2024-03-26T12:24:50.692Z,89.00
2024-03-26T12:26:11.447Z,99.67
2024-03-26T12:27:32.253Z,103.67
2024-03-26T12:28:52.775Z,91.67
2024-03-26T12:30:14.230Z,102.67
2024-03-26T12:31:37.046Z,105.17
2024-03-26T12:33:01.716Z,96.00
2024-03-26T12:34:23.227Z,92.50
2024-03-26T12:35:44.536Z,88.50
2024-03-26T12:37:05.853Z,85.17
2024-03-26T12:38:26.870Z,85.67
2024-03-26T12:39:47.106Z,90.50
2024-03-26T12:41:08.659Z,92.33
2024-03-26T12:42:29.833Z,95.83
2024-03-26T12:43:52.788Z,113.50
2024-03-26T12:45:14.819Z,105.67
2024-03-26T12:46:34.938Z,90.00
2024-03-26T12:47:56.368Z,71.00
2024-03-26T12:49:20.634Z,64.17
2024-03-26T12:50:41.869Z,59.67
2024-03-26T12:52:03.270Z,55.33
2024-03-26T12:53:25.384Z,48.50
2024-03-26T12:54:45.909Z,48.50
2024-03-26T12:56:07.160Z,52.33
2024-03-26T12:57:28.563Z,56.50
2024-03-26T12:58:49.362Z,60.50
2024-03-26T13:00:10.575Z,62.83
2024-03-26T13:01:32.619Z,63.00
2024-03-26T13:02:53.919Z,62.83
2024-03-26T13:04:15.212Z,62.00
2024-03-26T13:05:36.433Z,62.83
2024-03-26T13:06:57.604Z,79.17
2024-03-26T13:08:17.488Z,88.83
2024-03-26T13:09:38.427Z,85.00
2024-03-26T13:11:03.425Z,88.33
2024-03-26T13:12:24.617Z,107.83
2024-03-26T13:13:48.826Z,102.83
2024-03-26T13:15:12.185Z,97.00
2024-03-26T13:16:32.927Z,95.17
2024-03-26T13:17:54.103Z,101.50
2024-03-26T13:19:18.695Z,102.00
2024-03-26T13:20:42.860Z,129.33
2024-03-26T13:22:05.084Z,159.67
2024-03-26T13:23:26.698Z,130.17
2024-03-26T13:24:48.693Z,124.83
2024-03-26T13:26:10.460Z,125.67
2024-03-26T13:27:31.730Z,123.00
2024-03-26T13:28:52.944Z,121.67
2024-03-26T13:30:15.390Z,120.00
2024-03-26T13:31:41.647Z,127.33
2024-03-26T13:33:02.669Z,131.33
2024-03-26T13:34:23.907Z,128.83
2024-03-26T13:35:44.479Z,128.00
2024-03-26T13:37:07.265Z,126.83
2024-03-26T13:38:30.696Z,125.00
2024-03-26T13:39:50.664Z,123.00
2024-03-26T13:41:11.958Z,129.17
2024-03-26T13:42:33.486Z,137.67
2024-03-26T13:43:55.392Z,140.83
2024-03-26T13:45:17.363Z,148.17
2024-03-26T13:46:38.522Z,145.17
2024-03-26T13:47:59.179Z,151.33
2024-03-26T13:49:20.389Z,157.67
2024-03-26T13:50:43.807Z,175.67
2024-03-26T13:52:04.804Z,169.17
2024-03-26T13:53:26.384Z,161.67
2024-03-26T13:54:48.582Z,153.50
2024-03-26T13:56:11.039Z,147.50
2024-03-26T13:57:32.280Z,143.67
2024-03-26T13:58:56.672Z,146.83
2024-03-26T14:00:17.515Z,164.83
2024-03-26T14:01:40.698Z,167.50
2024-03-26T14:03:02.604Z,165.17
2024-03-26T14:04:24.478Z,154.17
2024-03-26T14:05:45.490Z,153.00
2024-03-26T14:07:07.546Z,152.83
2024-03-26T14:08:28.324Z,139.67
2024-03-26T14:09:49.769Z,129.83
2024-03-26T14:11:11.062Z,124.33
2024-03-26T14:12:32.524Z,118.83
2024-03-26T14:13:53.910Z,122.50
2024-03-26T14:15:15.781Z,128.00
2024-03-26T14:16:36.990Z,114.83
2024-03-26T14:17:59.397Z,110.17
2024-03-26T14:19:20.613Z,112.50
2024-03-26T14:20:41.799Z,107.83
2024-03-26T14:22:02.605Z,112.83
2024-03-26T14:23:24.435Z,129.67
2024-03-26T14:24:46.206Z,127.17
2024-03-26T14:26:07.266Z,124.50
2024-03-26T14:27:27.914Z,117.67
2024-03-26T14:28:48.771Z,108.33
2024-03-26T14:30:09.673Z,107.83
2024-03-26T14:31:31.123Z,111.17
2024-03-26T14:32:51.802Z,114.83
2024-03-26T14:34:13.564Z,108.67
2024-03-26T14:35:36.153Z,105.17
2024-03-26T14:36:57.740Z,103.33
2024-03-26T14:38:19.289Z,106.83
2024-03-26T14:39:40.673Z,98.33
2024-03-26T14:41:00.898Z,89.67
2024-03-26T14:42:22.729Z,80.17
2024-03-26T14:43:44.258Z,75.83
2024-03-26T14:45:06.257Z,76.50
2024-03-26T14:46:26.437Z,83.17
2024-03-26T14:47:50.706Z,74.17
2024-03-26T14:49:11.792Z,69.17
2024-03-26T14:50:33.423Z,66.50
2024-03-26T14:51:53.021Z,65.67
2024-03-26T14:53:13.788Z,66.33
2024-03-26T14:54:34.095Z,68.00
2024-03-26T14:55:55.964Z,67.67
2024-03-26T14:57:18.292Z,68.83
2024-03-26T14:58:39.220Z,71.33
2024-03-26T14:59:59.801Z,75.33
2024-03-26T15:01:22.193Z,84.50
2024-03-26T15:02:44.170Z,88.67
2024-03-26T15:04:05.785Z,88.00
2024-03-26T15:05:26.065Z,89.83
2024-03-26T15:06:47.322Z,87.50
2024-03-26T15:08:08.747Z,86.17
2024-03-26T15:09:28.808Z,94.17
2024-03-26T15:12:10.815Z,92.17
2024-03-26T15:13:31.186Z,92.83
2024-03-26T15:14:53.913Z,98.83
2024-03-26T15:16:16.318Z,98.83
2024-03-26T15:17:36.716Z,87.17
2024-03-26T15:18:57.027Z,75.00
2024-03-26T15:20:19.418Z,94.33
2024-03-26T15:21:40.160Z,102.67
2024-03-26T15:23:02.711Z,99.33
2024-03-26T15:24:23.718Z,98.83
2024-03-26T15:25:48.262Z,116.50
2024-03-26T15:27:16.562Z,152.33
2024-03-26T15:28:55.773Z,156.50
2024-03-26T15:30:35.409Z,145.67
2024-03-26T15:32:01.944Z,131.00
2024-03-26T15:33:23.734Z,122.33
2024-03-26T15:34:45.383Z,117.83
2024-03-26T15:36:06.859Z,113.33
2024-03-26T15:37:27.668Z,113.83
2024-03-26T15:38:48.163Z,142.83
2024-03-26T15:40:10.245Z,156.17
2024-03-26T15:41:31.134Z,144.17
2024-03-26T15:42:52.315Z,135.33
2024-03-26T15:44:13.620Z,114.33
2024-03-26T15:45:34.865Z,106.33
2024-03-26T15:46:56.066Z,99.00
2024-03-26T15:48:18.230Z,106.00
2024-03-26T15:49:39.326Z,123.83
2024-03-26T15:51:00.970Z,154.17
2024-03-26T15:52:22.780Z,171.67
2024-03-26T15:53:44.303Z,158.00
2024-03-26T15:55:05.808Z,147.67
2024-03-26T15:56:26.644Z,144.67
2024-03-26T15:57:48.195Z,116.33
2024-03-26T15:59:14.520Z,83.00
2024-03-26T16:00:36.802Z,83.83
2024-03-26T16:01:59.302Z,71.00
2024-03-26T16:03:22.614Z,70.00
2024-03-26T16:04:43.716Z,70.33
2024-03-26T16:06:08.343Z,83.17
2024-03-26T16:07:29.866Z,83.67
2024-03-26T16:08:50.704Z,74.67
2024-03-26T16:10:19.971Z,79.83
2024-03-26T16:11:52.166Z,86.17
2024-03-26T16:13:14.291Z,96.33
2024-03-26T16:14:35.997Z,99.67
2024-03-26T16:15:57.885Z,98.33
2024-03-26T16:17:19.659Z,103.50
2024-03-26T16:18:41.262Z,117.50
2024-03-26T16:20:03.811Z,115.67
2024-03-26T16:21:25.622Z,113.00
2024-03-26T16:22:46.347Z,115.00
2024-03-26T16:24:08.821Z,119.33
2024-03-26T16:25:30.630Z,136.17
2024-03-26T16:26:51.355Z,157.17
2024-03-26T16:28:12.931Z,183.33
2024-03-26T16:29:33.333Z,167.17
2024-03-26T16:30:55.370Z,148.00
2024-03-26T16:32:18.126Z,159.17
2024-03-26T16:33:38.008Z,178.67
2024-03-26T16:34:59.217Z,176.33
2024-03-26T16:36:20.364Z,175.50
2024-03-26T16:37:41.256Z,172.67
2024-03-26T16:39:02.726Z,160.17
2024-03-26T16:40:24.520Z,146.00
2024-03-26T16:41:44.899Z,154.67
2024-03-26T16:43:06.407Z,182.17
2024-03-26T16:44:26.387Z,183.17
2024-03-26T16:45:48.110Z,192.00
2024-03-26T16:47:09.557Z,185.83
2024-03-26T16:48:31.191Z,182.00
2024-03-26T16:49:52.290Z,208.17
2024-03-26T16:51:14.407Z,246.00
2024-03-26T16:52:50.098Z,246.83
2024-03-26T16:56:20.631Z,248.83
2024-03-26T16:58:20.291Z,288.33
2024-03-26T17:01:54.437Z,391.83
2024-03-26T17:04:12.242Z,370.33
2024-03-26T17:05:52.689Z,319.50
2024-03-26T17:07:25.409Z,313.83
2024-03-26T17:08:45.563Z,314.83
2024-03-26T17:10:48.960Z,318.33
2024-03-26T17:12:15.069Z,294.83
2024-03-26T17:13:41.073Z,271.33
2024-03-26T17:15:04.964Z,263.50
2024-03-26T17:16:54.880Z,257.67
2024-03-26T17:18:20.316Z,246.00
2024-03-26T17:19:44.151Z,250.17
2024-03-26T17:21:04.279Z,260.17
2024-03-26T17:23:12.695Z,268.67
2024-03-26T17:24:37.048Z,286.33
2024-03-26T17:26:04.492Z,287.17
2024-03-26T17:27:54.127Z,299.83
2024-03-26T17:29:40.192Z,309.50
2024-03-26T17:31:29.229Z,302.33
2024-03-26T17:35:47.490Z,310.83
2024-03-26T17:37:16.482Z,311.50
2024-03-26T17:38:41.458Z,308.33
2024-03-26T17:40:19.694Z,307.00
2024-03-26T17:44:36.810Z,320.00
2024-03-26T17:45:58.000Z,325.17
2024-03-26T17:47:30.069Z,322.67
2024-03-26T17:49:06.851Z,320.50
2024-03-26T17:50:27.908Z,321.17
2024-03-26T17:52:06.975Z,323.17
2024-03-26T17:53:45.448Z,324.00
2024-03-26T17:55:09.104Z,328.33
2024-03-26T17:56:56.306Z,335.17
2024-03-26T17:58:24.716Z,348.67
2024-03-26T17:59:58.917Z,346.17
2024-03-26T18:01:35.619Z,344.50
2024-03-26T18:03:23.924Z,342.17
2024-03-26T18:05:12.986Z,345.50
2024-03-26T18:06:33.011Z,341.33
2024-03-26T18:07:53.956Z,336.17
2024-03-26T18:09:19.977Z,340.17
2024-03-26T18:10:43.554Z,354.33
2024-03-26T18:12:13.460Z,369.33
2024-03-26T18:13:35.566Z,375.67
2024-03-26T18:15:10.800Z,379.50
2024-03-26T18:16:34.768Z,383.67
2024-03-26T18:17:58.209Z,385.17
2024-03-26T18:19:39.487Z,378.33
2024-03-26T18:21:01.092Z,379.33
2024-03-26T18:22:22.217Z,377.33
2024-03-26T18:23:49.255Z,377.00
2024-03-26T18:25:37.535Z,376.00
2024-03-26T18:27:07.553Z,374.83
2024-03-26T18:28:32.587Z,372.33
2024-03-26T18:30:46.977Z,371.33
2024-03-26T18:31:47.162Z,368.00
2024-03-26T18:33:14.282Z,370.67
2024-03-26T18:34:40.815Z,377.67
2024-03-26T18:36:19.109Z,380.17
2024-03-26T18:38:05.357Z,381.00
2024-03-26T18:39:27.454Z,380.50
2024-03-26T18:41:04.305Z,379.50
2024-03-26T18:42:44.322Z,373.00
2024-03-26T18:44:20.930Z,370.00
2024-03-26T18:45:42.761Z,362.00
2024-03-26T18:47:14.880Z,353.83
2024-03-26T18:51:14.083Z,312.67
2024-03-26T18:53:17.157Z,323.50